createdAt,value
2023-04-25T00:02:03.608Z,13.10
2023-04-25T00:04:34.214Z,10.13
2023-04-25T00:07:03.680Z,12.43
2023-04-25T00:09:33.885Z,7.73
2023-04-25T00:12:02.549Z,8.43
2023-04-25T00:14:31.356Z,7.70
2023-04-25T00:17:00.013Z,11.03
2023-04-25T00:19:29.437Z,13.13
2023-04-25T00:21:57.496Z,8.87
2023-04-25T00:24:25.538Z,9.33
2023-04-25T00:26:54.958Z,9.43
2023-04-25T00:29:22.898Z,8.03
2023-04-25T00:31:50.989Z,11.87
2023-04-25T00:34:19.110Z,7.93
2023-04-25T00:36:47.264Z,9.47
2023-04-25T00:39:15.426Z,10.63
2023-04-25T00:41:43.392Z,9.70
2023-04-25T00:44:14.484Z,12.00
2023-04-25T00:46:43.007Z,12.40
2023-04-25T00:49:16.444Z,9.60
2023-04-25T00:51:45.119Z,9.77
2023-04-25T00:54:13.355Z,9.67
2023-04-25T00:56:41.742Z,11.57
2023-04-25T00:59:10.043Z,9.23
2023-04-25T01:01:41.250Z,8.07
2023-04-25T01:04:09.644Z,10.53
2023-04-25T01:06:37.986Z,13.63
2023-04-25T01:09:06.735Z,9.67
2023-04-25T01:11:34.862Z,9.30
2023-04-25T01:14:03.212Z,8.80
2023-04-25T01:16:31.469Z,11.33
2023-04-25T01:19:01.466Z,10.33
2023-04-25T01:21:33.679Z,8.00
2023-04-25T01:24:01.837Z,7.80
2023-04-25T01:26:30.636Z,11.30
2023-04-25T01:28:59.049Z,10.80
2023-04-25T01:31:27.812Z,11.17
2023-04-25T01:33:55.894Z,11.23
2023-04-25T01:36:24.167Z,10.97
2023-04-25T01:38:53.543Z,11.43
2023-04-25T01:41:24.478Z,13.67
2023-04-25T01:43:52.865Z,12.97
2023-04-25T01:46:21.197Z,17.73
2023-04-25T01:48:49.311Z,12.70
2023-04-25T01:51:17.350Z,11.13
2023-04-25T01:53:45.766Z,11.43
2023-04-25T01:56:15.703Z,12.50
2023-04-25T01:58:43.709Z,10.27
2023-04-25T02:01:30.400Z,10.83
2023-04-25T02:04:17.933Z,11.63
2023-04-25T02:06:46.401Z,12.80
2023-04-25T02:09:14.607Z,13.90
2023-04-25T02:11:49.017Z,12.40
2023-04-25T02:14:35.389Z,10.20
2023-04-25T02:17:08.284Z,11.20
2023-04-25T02:19:36.407Z,10.30
2023-04-25T02:22:04.549Z,14.77
2023-04-25T02:24:34.659Z,12.37
2023-04-25T02:27:04.326Z,11.30
2023-04-25T02:29:32.697Z,13.63
2023-04-25T02:32:01.056Z,13.90
2023-04-25T02:34:29.375Z,11.97
2023-04-25T02:36:57.559Z,8.77
2023-04-25T02:39:26.206Z,14.70
2023-04-25T02:41:54.872Z,16.57
2023-04-25T02:44:24.862Z,13.43
2023-04-25T02:46:53.080Z,15.57
2023-04-25T02:49:21.290Z,13.50
2023-04-25T02:51:49.422Z,13.40
2023-04-25T02:54:17.627Z,15.27
2023-04-25T02:56:49.073Z,14.20
2023-04-25T02:59:25.235Z,12.77
2023-04-25T03:01:53.592Z,17.23
2023-04-25T03:04:21.960Z,10.83
2023-04-25T03:06:50.739Z,13.83
2023-04-25T03:09:19.030Z,11.83
2023-04-25T03:11:47.612Z,15.67
2023-04-25T03:14:16.239Z,16.97
2023-04-25T03:16:46.155Z,15.20
2023-04-25T03:19:17.026Z,16.03
2023-04-25T03:21:45.520Z,14.27
2023-04-25T03:24:14.762Z,13.20
2023-04-25T03:26:43.097Z,12.57
2023-04-25T03:29:11.597Z,13.37
2023-04-25T03:31:41.191Z,16.53
2023-04-25T03:34:11.293Z,15.17
2023-04-25T03:36:41.644Z,14.10
2023-04-25T03:39:10.327Z,13.43
2023-04-25T03:41:39.634Z,10.90
2023-04-25T03:44:13.858Z,10.90
2023-04-25T03:46:42.123Z,13.00
2023-04-25T03:49:12.112Z,14.90
2023-04-25T03:51:58.569Z,13.37
2023-04-25T03:54:27.011Z,12.17
2023-04-25T03:57:04.865Z,16.87
2023-04-25T03:59:35.981Z,12.43
2023-04-25T04:02:04.882Z,16.20
2023-04-25T04:04:37.727Z,16.37
2023-04-25T04:07:06.085Z,13.73
2023-04-25T04:09:37.797Z,18.20
2023-04-25T04:12:12.265Z,17.50
2023-04-25T04:14:42.573Z,11.77
2023-04-25T04:17:11.579Z,13.97
2023-04-25T04:19:41.185Z,10.07
2023-04-25T04:22:15.984Z,14.03
2023-04-25T04:24:44.974Z,13.33
2023-04-25T04:27:15.083Z,12.77
2023-04-25T04:29:53.344Z,17.50
2023-04-25T04:32:39.322Z,12.53
2023-04-25T04:35:12.044Z,12.47
2023-04-25T04:37:40.868Z,10.93
2023-04-25T04:40:11.626Z,12.97
2023-04-25T04:43:02.910Z,15.23
2023-04-25T04:45:52.310Z,12.47
2023-04-25T04:48:35.161Z,16.63
2023-04-25T04:51:19.765Z,11.13
2023-04-25T04:54:03.370Z,15.70
2023-04-25T04:56:57.668Z,18.13
2023-04-25T04:59:38.170Z,13.13
2023-04-25T05:02:29.608Z,14.07
2023-04-25T05:05:25.983Z,13.07
2023-04-25T05:08:01.562Z,11.57
2023-04-25T05:10:50.788Z,13.67
2023-04-25T05:13:39.288Z,14.23
2023-04-25T05:16:20.778Z,11.93
2023-04-25T05:19:15.361Z,14.83
2023-04-25T05:22:06.405Z,15.83
2023-04-25T05:24:56.115Z,15.17
2023-04-25T05:27:42.795Z,13.83
2023-04-25T05:30:29.367Z,14.30
2023-04-25T05:33:08.412Z,16.23
2023-04-25T05:35:36.619Z,16.83
2023-04-25T05:38:04.746Z,19.10
2023-04-25T05:41:09.593Z,18.60
2023-04-25T05:43:51.314Z,18.37
2023-04-25T05:46:25.142Z,20.40
2023-04-25T05:49:07.089Z,12.43
2023-04-25T05:51:53.829Z,13.23
2023-04-25T05:54:32.482Z,18.00
2023-04-25T05:57:03.662Z,15.77
2023-04-25T05:59:32.236Z,11.43
2023-04-25T06:02:01.847Z,15.97
2023-04-25T06:04:31.937Z,14.33
2023-04-25T06:07:00.386Z,18.20
2023-04-25T06:09:28.921Z,16.00
2023-04-25T06:11:57.158Z,13.50
2023-04-25T06:14:28.961Z,15.60
2023-04-25T06:16:57.725Z,15.20
2023-04-25T06:19:25.911Z,17.20
2023-04-25T06:21:54.184Z,19.07
2023-04-25T06:24:22.668Z,18.93
2023-04-25T06:26:52.029Z,21.13
2023-04-25T06:29:20.296Z,14.23
2023-04-25T06:31:50.234Z,20.50
2023-04-25T06:34:18.470Z,11.43
2023-04-25T06:36:47.440Z,14.77
2023-04-25T06:39:17.937Z,13.93
2023-04-25T06:41:46.018Z,12.57
2023-04-25T06:44:36.901Z,15.63
2023-04-25T06:47:08.152Z,18.10
2023-04-25T06:49:36.480Z,20.30
2023-04-25T06:52:04.954Z,19.57
2023-04-25T06:54:33.085Z,20.63
2023-04-25T06:57:07.100Z,15.40
2023-04-25T06:59:35.336Z,13.83
2023-04-25T07:02:04.666Z,17.60
2023-04-25T07:04:34.416Z,15.80
2023-04-25T07:07:04.850Z,20.17
2023-04-25T07:09:43.328Z,19.40
2023-04-25T07:12:11.437Z,21.37
2023-04-25T07:14:40.325Z,19.50
2023-04-25T07:17:09.849Z,13.37
2023-04-25T07:19:40.977Z,17.83
2023-04-25T07:22:10.041Z,14.53
2023-04-25T07:24:40.688Z,18.97
2023-04-25T07:27:09.714Z,21.73
2023-04-25T07:29:54.041Z,12.53
2023-04-25T07:32:24.458Z,14.87
2023-04-25T07:34:54.092Z,17.23
2023-04-25T07:37:22.282Z,25.40
2023-04-25T07:40:04.741Z,16.07
2023-04-25T07:42:34.214Z,11.63
2023-04-25T07:45:03.639Z,12.50
2023-04-25T07:47:31.924Z,11.00
2023-04-25T07:50:01.521Z,11.63
2023-04-25T07:52:30.626Z,11.80
2023-04-25T07:55:06.495Z,12.10
2023-04-25T07:57:43.909Z,16.43
2023-04-25T08:00:13.707Z,13.73
2023-04-25T08:02:53.048Z,11.67
2023-04-25T08:05:24.761Z,11.70
2023-04-25T08:08:01.990Z,13.57
2023-04-25T08:10:30.355Z,12.33
2023-04-25T08:12:58.493Z,12.30
2023-04-25T08:15:26.484Z,9.87
2023-04-25T08:17:54.752Z,14.73
2023-04-25T08:20:24.527Z,11.90
2023-04-25T08:22:54.719Z,10.40
2023-04-25T08:25:32.055Z,8.70
2023-04-25T08:28:00.548Z,9.17
2023-04-25T08:30:29.103Z,12.77
2023-04-25T08:32:57.521Z,9.50
2023-04-25T08:35:48.022Z,23.07
2023-04-25T08:38:17.577Z,10.33
2023-04-25T08:40:46.404Z,8.40
2023-04-25T08:43:21.059Z,12.57
2023-04-25T08:45:49.980Z,10.03
2023-04-25T08:48:42.988Z,9.17
2023-04-25T08:51:12.924Z,12.67
2023-04-25T08:53:43.765Z,12.30
2023-04-25T08:56:14.161Z,8.63
2023-04-25T08:58:42.570Z,12.53
2023-04-25T09:01:10.706Z,8.03
2023-04-25T09:03:48.259Z,8.77
2023-04-25T09:06:18.627Z,10.13
2023-04-25T09:08:47.102Z,12.37
2023-04-25T09:11:15.929Z,9.77
2023-04-25T09:13:44.135Z,12.13
2023-04-25T09:16:28.586Z,8.80
2023-04-25T09:19:38.234Z,10.40
2023-04-25T09:22:15.830Z,6.30
2023-04-25T09:24:46.928Z,6.40
2023-04-25T09:27:20.893Z,8.17
2023-04-25T09:29:58.830Z,8.20
2023-04-25T09:32:27.616Z,13.10
2023-04-25T09:35:00.008Z,6.40
2023-04-25T09:37:32.755Z,9.17
2023-04-25T09:40:21.831Z,7.10
2023-04-25T09:42:57.821Z,9.17
2023-04-25T09:45:26.713Z,7.90
2023-04-25T09:47:58.838Z,5.23
2023-04-25T09:50:30.161Z,5.07
2023-04-25T09:53:09.341Z,6.57
2023-04-25T09:55:58.878Z,5.30
2023-04-25T09:58:30.690Z,7.53
2023-04-25T10:01:03.060Z,7.50
2023-04-25T10:03:43.944Z,10.47
2023-04-25T10:06:39.236Z,8.93
2023-04-25T10:09:09.767Z,7.70
2023-04-25T10:11:39.113Z,7.10
2023-04-25T10:14:10.766Z,7.07
2023-04-25T10:16:48.933Z,9.20
2023-04-25T10:19:17.643Z,6.70
2023-04-25T10:21:50.668Z,6.57
2023-04-25T10:24:20.418Z,5.53
2023-04-25T10:26:48.818Z,7.47
2023-04-25T10:29:24.498Z,7.93
2023-04-25T10:31:52.787Z,5.70
2023-04-25T10:34:21.480Z,9.70
2023-04-25T10:36:54.058Z,9.00
2023-04-25T10:39:29.071Z,6.60
2023-04-25T10:41:58.927Z,12.47
2023-04-25T10:44:29.082Z,11.10
2023-04-25T10:46:58.507Z,7.57
2023-04-25T10:49:36.648Z,9.73
2023-04-25T10:52:27.521Z,7.57
2023-04-25T10:54:57.864Z,8.47
2023-04-25T10:57:38.698Z,5.97
2023-04-25T11:00:17.881Z,11.13
2023-04-25T11:05:50.976Z,6.77
2023-04-25T11:08:34.549Z,9.93
2023-04-25T11:11:04.376Z,7.00
2023-04-25T11:13:32.562Z,9.57
2023-04-25T11:14:37.708Z,9.43
2023-04-25T11:16:07.634Z,9.23
2023-04-25T11:18:43.424Z,7.37
2023-04-25T11:21:12.325Z,6.87
2023-04-25T11:23:40.537Z,6.87
2023-04-25T11:26:10.016Z,7.77
2023-04-25T11:28:38.003Z,7.83
2023-04-25T11:31:06.633Z,7.63
2023-04-25T11:33:34.635Z,5.77
2023-04-25T11:36:02.703Z,8.30
2023-04-25T11:38:30.920Z,7.63
2023-04-25T11:40:59.443Z,8.20
2023-04-25T11:43:28.959Z,10.10
2023-04-25T11:45:57.180Z,7.93
2023-04-25T11:48:25.845Z,7.17
2023-04-25T11:50:56.169Z,9.57
2023-04-25T11:53:25.882Z,7.70
2023-04-25T11:55:54.267Z,7.03
2023-04-25T11:58:23.745Z,8.30
2023-04-25T12:00:53.163Z,11.73
2023-04-25T12:03:22.701Z,8.53
2023-04-25T12:05:52.630Z,7.10
2023-04-25T12:08:21.124Z,6.87
2023-04-25T12:10:49.532Z,7.73
2023-04-25T12:13:22.613Z,6.07
2023-04-25T12:15:50.975Z,7.73
2023-04-25T12:18:23.389Z,8.87
2023-04-25T12:20:51.464Z,4.83
2023-04-25T12:23:27.496Z,7.83
2023-04-25T12:25:55.611Z,5.20
2023-04-25T12:28:25.117Z,8.13
2023-04-25T12:30:58.492Z,5.17
2023-04-25T12:33:28.923Z,7.17
2023-04-25T12:35:57.356Z,7.83
2023-04-25T12:38:26.952Z,7.30
2023-04-25T12:40:55.531Z,8.53
2023-04-25T12:43:23.843Z,5.80
2023-04-25T12:45:52.546Z,9.10
2023-04-25T12:48:21.116Z,5.57
2023-04-25T12:50:51.624Z,6.10
2023-04-25T12:53:20.500Z,9.67
2023-04-25T12:55:49.266Z,6.97
2023-04-25T12:58:18.471Z,6.10
2023-04-25T13:00:47.178Z,6.47
2023-04-25T13:03:15.676Z,6.10
2023-04-25T13:05:44.373Z,6.47
2023-04-25T13:08:13.910Z,5.33
2023-04-25T13:10:42.062Z,6.33
2023-04-25T13:13:10.225Z,7.37
2023-04-25T13:15:38.705Z,5.23
2023-04-25T13:18:06.965Z,9.53
2023-04-25T13:20:34.972Z,4.77
2023-04-25T13:23:03.219Z,7.97
2023-04-25T13:25:32.732Z,6.53
2023-04-25T13:28:00.836Z,3.57
2023-04-25T13:30:28.976Z,6.73
2023-04-25T13:32:57.955Z,7.63
2023-04-25T13:35:26.874Z,5.60
2023-04-25T13:37:54.864Z,5.47
2023-04-25T13:40:25.125Z,6.27
2023-04-25T13:42:55.184Z,9.13
2023-04-25T13:45:23.372Z,6.97
2023-04-25T13:47:51.899Z,5.77
2023-04-25T13:50:20.352Z,7.87
2023-04-25T13:52:48.609Z,4.40
2023-04-25T13:55:17.191Z,3.43
2023-04-25T13:57:45.296Z,5.53
2023-04-25T14:00:22.215Z,7.30
2023-04-25T14:02:50.833Z,14.00
2023-04-25T14:05:19.224Z,4.83
2023-04-25T14:07:47.468Z,8.93
2023-04-25T14:10:15.736Z,5.87
2023-04-25T14:12:43.824Z,5.37
2023-04-25T14:15:12.876Z,5.77
2023-04-25T14:17:42.384Z,8.30
2023-04-25T14:20:11.996Z,5.77
2023-04-25T14:22:43.992Z,5.00
2023-04-25T14:25:12.156Z,5.80
2023-04-25T14:27:40.449Z,6.30
2023-04-25T14:30:10.889Z,7.20
2023-04-25T14:32:39.429Z,6.30
2023-04-25T14:35:10.124Z,7.50
2023-04-25T14:37:38.692Z,3.90
2023-04-25T14:40:08.163Z,11.23
2023-04-25T14:42:36.637Z,5.43
2023-04-25T14:45:05.265Z,4.70
2023-04-25T14:47:33.532Z,7.57
2023-04-25T14:50:02.641Z,6.27
2023-04-25T14:52:32.931Z,7.67
2023-04-25T14:55:05.949Z,9.77
2023-04-25T14:57:34.365Z,3.37
2023-04-25T15:00:02.831Z,6.50
2023-04-25T15:02:32.426Z,8.00
2023-04-25T15:05:01.328Z,4.53
2023-04-25T15:07:30.039Z,3.27
2023-04-25T15:09:59.671Z,5.17
2023-04-25T15:12:29.346Z,2.80
2023-04-25T15:14:57.682Z,3.07
2023-04-25T15:17:25.895Z,3.40
2023-04-25T15:19:55.650Z,3.50
2023-04-25T15:22:23.832Z,4.40
2023-04-25T15:24:52.441Z,2.17
2023-04-25T15:27:22.320Z,2.50
2023-04-25T15:29:50.489Z,5.33
2023-04-25T15:32:18.691Z,3.40
2023-04-25T15:34:47.077Z,3.43
2023-04-25T15:37:15.682Z,3.60
2023-04-25T15:39:44.424Z,2.37
2023-04-25T15:42:12.778Z,3.00
2023-04-25T15:44:42.341Z,4.60
2023-04-25T15:47:10.502Z,1.87
2023-04-25T15:49:39.035Z,1.70
2023-04-25T15:52:07.144Z,2.70
2023-04-25T15:54:35.616Z,4.43
2023-04-25T15:57:03.811Z,5.20
2023-04-25T15:59:32.252Z,2.63
2023-04-25T16:02:01.870Z,4.43
2023-04-25T16:04:35.419Z,4.73
2023-04-25T16:07:05.309Z,3.90
2023-04-25T16:09:34.145Z,4.47
2023-04-25T16:12:02.587Z,3.67
2023-04-25T16:14:31.371Z,6.33
2023-04-25T16:17:01.029Z,4.67
2023-04-25T16:19:29.565Z,4.90
2023-04-25T16:21:57.626Z,4.10
2023-04-25T16:24:25.811Z,3.43
2023-04-25T16:26:54.226Z,3.50
2023-04-25T16:29:22.646Z,3.80
2023-04-25T16:31:50.932Z,7.37
2023-04-25T16:34:21.284Z,2.87
2023-04-25T16:36:49.849Z,2.07
2023-04-25T16:39:18.184Z,3.40
2023-04-25T16:41:46.625Z,4.90
2023-04-25T16:44:14.842Z,8.27
2023-04-25T16:46:43.005Z,17.93
2023-04-25T16:49:11.229Z,3.97
2023-04-25T16:51:40.704Z,3.33
2023-04-25T16:54:08.760Z,3.07
2023-04-25T16:56:36.976Z,5.13
2023-04-25T16:59:05.095Z,3.23
2023-04-25T17:01:33.419Z,4.43
2023-04-25T17:04:01.784Z,6.43
2023-04-25T17:06:30.285Z,2.77
2023-04-25T17:08:59.963Z,5.57
2023-04-25T17:11:28.144Z,6.43
2023-04-25T17:13:56.281Z,3.40
2023-04-25T17:16:24.404Z,4.20
2023-04-25T17:18:53.027Z,3.97
2023-04-25T17:21:21.517Z,4.50
2023-04-25T17:23:49.737Z,4.20
2023-04-25T17:26:19.214Z,3.80
2023-04-25T17:28:49.625Z,5.17
2023-04-25T17:31:18.199Z,5.37
2023-04-25T17:33:46.286Z,2.90
2023-04-25T17:36:15.050Z,5.07
2023-04-25T17:38:43.078Z,4.67
2023-04-25T17:41:13.228Z,5.10
2023-04-25T17:43:42.794Z,2.87
2023-04-25T17:46:11.031Z,5.77
2023-04-25T17:48:39.268Z,6.73
2023-04-25T17:51:07.753Z,6.77
2023-04-25T17:53:37.554Z,3.97
2023-04-25T17:56:12.966Z,4.20
2023-04-25T17:58:49.595Z,7.90
2023-04-25T18:01:17.943Z,4.00
2023-04-25T18:03:49.122Z,3.93
2023-04-25T18:06:18.883Z,8.00
2023-04-25T18:08:47.415Z,8.77
2023-04-25T18:11:15.619Z,5.47
2023-04-25T18:13:44.141Z,8.20
2023-04-25T18:16:13.676Z,5.70
2023-04-25T18:18:44.009Z,7.43
2023-04-25T18:21:12.127Z,5.33
2023-04-25T18:23:40.211Z,5.80
2023-04-25T18:26:08.300Z,3.93
2023-04-25T18:28:36.398Z,5.60
2023-04-25T18:31:04.533Z,4.63
2023-04-25T18:33:34.124Z,11.07
2023-04-25T18:36:02.556Z,4.97
2023-04-25T18:41:18.432Z,2.90
2023-04-25T18:43:50.725Z,4.30
2023-04-25T18:46:22.375Z,4.97
2023-04-25T18:48:53.904Z,5.07
2023-04-25T18:51:22.868Z,5.17
2023-04-25T18:53:52.107Z,5.03
2023-04-25T18:56:22.651Z,5.30
2023-04-25T18:58:51.701Z,5.23
2023-04-25T19:01:20.193Z,4.57
2023-04-25T19:03:55.697Z,5.20
2023-04-25T19:06:29.433Z,4.90
2023-04-25T19:08:57.852Z,2.73
2023-04-25T19:11:26.479Z,7.27
2023-04-25T19:13:56.652Z,4.13
2023-04-25T19:16:26.508Z,4.83
2023-04-25T19:18:55.539Z,5.63
2023-04-25T19:21:25.151Z,6.17
2023-04-25T19:23:54.340Z,5.07
2023-04-25T19:26:24.735Z,4.50
2023-04-25T19:29:05.018Z,6.47
2023-04-25T19:31:33.605Z,5.37
2023-04-25T19:34:01.833Z,8.13
2023-04-25T19:36:31.360Z,8.23
2023-04-25T19:39:02.845Z,4.63
2023-04-25T19:41:31.480Z,4.07
2023-04-25T19:44:00.938Z,3.13
2023-04-25T19:46:29.197Z,5.90
2023-04-25T19:48:57.356Z,5.93
2023-04-25T19:51:27.263Z,4.07
2023-04-25T19:53:57.382Z,6.63
2023-04-25T19:56:26.433Z,5.53
2023-04-25T19:58:54.926Z,7.27
2023-04-25T20:01:23.331Z,6.30
2023-04-25T20:03:52.774Z,6.60
2023-04-25T20:06:21.687Z,8.33
2023-04-25T20:08:51.372Z,6.73
2023-04-25T20:11:21.605Z,9.50
2023-04-25T20:13:50.138Z,9.40
2023-04-25T20:16:20.420Z,6.27
2023-04-25T20:18:49.006Z,7.00
2023-04-25T20:21:18.344Z,6.90
2023-04-25T20:23:46.843Z,8.20
2023-04-25T20:26:15.479Z,5.13
2023-04-25T20:28:45.270Z,6.37
2023-04-25T20:31:16.615Z,8.27
2023-04-25T20:33:45.785Z,5.30
2023-04-25T20:36:15.218Z,7.90
2023-04-25T20:38:43.305Z,6.07
2023-04-25T20:41:11.489Z,5.27
2023-04-25T20:43:40.349Z,8.80
2023-04-25T20:46:10.380Z,9.10
2023-04-25T20:48:38.548Z,6.17
2023-04-25T20:51:07.284Z,6.60
2023-04-25T20:53:35.577Z,5.70
2023-04-25T20:56:04.760Z,7.23
2023-04-25T20:58:38.714Z,10.83
2023-04-25T21:01:06.813Z,7.13
2023-04-25T21:03:36.848Z,9.03
2023-04-25T21:06:05.264Z,13.67
2023-04-25T21:08:35.111Z,9.27
2023-04-25T21:11:03.222Z,11.20
2023-04-25T21:13:31.885Z,9.43
2023-04-25T21:16:00.415Z,7.23
2023-04-25T21:18:29.894Z,6.23
2023-04-25T21:20:59.385Z,6.63
2023-04-25T21:23:27.443Z,8.63
2023-04-25T21:25:55.541Z,8.37
2023-04-25T21:28:23.810Z,5.50
2023-04-25T21:30:52.079Z,8.00
2023-04-25T21:33:20.148Z,7.57
2023-04-25T21:35:48.614Z,9.13
2023-04-25T21:38:18.420Z,5.60
2023-04-25T21:40:46.806Z,6.23
2023-04-25T21:43:14.920Z,6.47
2023-04-25T21:46:05.791Z,6.57
2023-04-25T21:48:31.001Z,6.43
2023-04-25T21:50:59.120Z,5.20
2023-04-25T21:53:28.693Z,9.43
2023-04-25T21:55:56.673Z,5.00
2023-04-25T21:58:24.796Z,6.47
2023-04-25T22:00:55.627Z,5.93
2023-04-25T22:03:24.976Z,7.30
2023-04-25T22:05:53.233Z,7.07
2023-04-25T22:08:21.395Z,7.80
2023-04-25T22:10:51.112Z,5.83
2023-04-25T22:13:22.142Z,9.63
2023-04-25T22:15:50.261Z,9.33
2023-04-25T22:18:20.238Z,8.80
2023-04-25T22:20:49.722Z,5.20
2023-04-25T22:23:18.233Z,6.20
2023-04-25T22:25:46.273Z,5.57
2023-04-25T22:28:15.899Z,6.07
2023-04-25T22:30:44.039Z,7.70
2023-04-25T22:33:12.242Z,6.43
2023-04-25T22:35:44.332Z,9.20
2023-04-25T22:38:12.759Z,4.87
2023-04-25T22:40:40.978Z,7.53
2023-04-25T22:43:09.006Z,5.87
2023-04-25T22:45:38.477Z,6.17
2023-04-25T22:48:07.172Z,8.03
2023-04-25T22:50:35.626Z,6.10
2023-04-25T22:53:04.306Z,8.57
2023-04-25T22:55:32.362Z,6.57
2023-04-25T22:58:00.497Z,7.13
2023-04-25T23:00:30.339Z,5.87
2023-04-25T23:02:59.846Z,8.10
2023-04-25T23:05:28.172Z,5.10
2023-04-25T23:07:56.185Z,5.27
2023-04-25T23:10:24.523Z,6.20
2023-04-25T23:12:53.621Z,4.13
2023-04-25T23:15:21.701Z,9.13
2023-04-25T23:17:50.206Z,5.97
2023-04-25T23:20:21.039Z,7.47
2023-04-25T23:22:49.666Z,7.70
2023-04-25T23:25:18.202Z,5.43
2023-04-25T23:27:46.487Z,4.70
2023-04-25T23:30:15.370Z,6.17
2023-04-25T23:32:43.415Z,8.97
2023-04-25T23:35:11.960Z,6.17
2023-04-25T23:37:41.888Z,5.53
2023-04-25T23:40:12.250Z,6.77
2023-04-25T23:42:41.288Z,4.63
2023-04-25T23:45:10.305Z,4.17
2023-04-25T23:47:38.411Z,6.50
2023-04-25T23:50:08.027Z,6.40
2023-04-25T23:52:36.193Z,5.77
2023-04-25T23:55:06.413Z,4.80
2023-04-25T23:57:34.498Z,9.20
